createdAt,value
2018-04-17T00:00:32.399Z,101836.02
2018-04-17T00:03:35.908Z,101835.19
2018-04-17T00:06:40.209Z,101838.03
2018-04-17T00:09:43.572Z,101848.88
2018-04-17T00:12:46.943Z,101850.37
2018-04-17T00:15:50.727Z,101845.03
2018-04-17T00:18:54.151Z,101850.63
2018-04-17T00:21:57.515Z,101849.44
2018-04-17T00:25:00.878Z,101852.92
2018-04-17T00:28:04.251Z,101850.89
2018-04-17T00:31:07.593Z,101850.05
2018-04-17T00:34:10.970Z,101851.52
2018-04-17T00:37:14.320Z,101857.68
2018-04-17T00:40:17.812Z,101856.45
2018-04-17T00:43:21.180Z,101862.21
2018-04-17T00:46:24.542Z,101863.47
2018-04-17T00:49:28.674Z,101866.91
2018-04-17T00:52:32.088Z,101873.36
2018-04-17T00:55:35.449Z,101866.69
2018-04-17T00:58:39.560Z,101866.95
2018-04-17T01:01:43.684Z,101867.55
2018-04-17T01:04:47.935Z,101872.34
2018-04-17T01:07:51.279Z,101867.19
2018-04-17T01:10:54.650Z,101874.25
2018-04-17T01:13:58.083Z,101865.62
2018-04-17T01:17:01.488Z,101872.33
2018-04-17T01:20:04.840Z,101878.84
2018-04-17T01:23:08.219Z,101884.89
2018-04-17T01:26:11.582Z,101884.45
2018-04-17T01:29:14.927Z,101889.26
2018-04-17T01:32:18.324Z,101891.08
2018-04-17T01:35:21.745Z,101884.94
2018-04-17T01:38:25.133Z,101891.70
2018-04-17T01:41:28.487Z,101894.56
2018-04-17T01:44:31.861Z,101894.31
2018-04-17T01:47:35.979Z,101896.72
2018-04-17T01:50:39.336Z,101900.43
2018-04-17T01:53:42.804Z,101904.17
2018-04-17T01:56:46.161Z,101905.42
2018-04-17T01:59:49.560Z,101895.41
2018-04-17T02:02:52.930Z,101906.30
2018-04-17T02:05:56.293Z,101905.66
2018-04-17T02:08:59.653Z,101906.60
2018-04-17T02:12:03.010Z,101902.19
2018-04-17T02:15:07.133Z,101906.50
2018-04-17T02:18:11.269Z,101909.08
2018-04-17T02:21:14.806Z,101912.58
2018-04-17T02:24:18.202Z,101909.33
2018-04-17T02:27:21.551Z,101905.39
2018-04-17T02:30:25.668Z,101903.84
2018-04-17T02:33:29.790Z,101899.55
2018-04-17T02:36:33.152Z,101915.13
2018-04-17T02:39:36.505Z,101911.44
2018-04-17T02:42:39.953Z,101913.41
2018-04-17T02:45:44.819Z,101921.58
2018-04-17T02:48:48.189Z,101928.33
2018-04-17T02:51:51.569Z,101941.33
2018-04-17T02:54:54.926Z,101944.08
2018-04-17T02:57:58.308Z,101938.30
2018-04-17T03:01:02.447Z,101951.57
2018-04-17T03:04:05.813Z,101957.67
2018-04-17T03:07:09.165Z,101957.58
2018-04-17T03:10:12.545Z,101960.83
2018-04-17T03:13:15.895Z,101962.46
2018-04-17T03:16:19.250Z,101965.75
2018-04-17T03:19:22.600Z,101964.91
2018-04-17T03:22:25.951Z,101962.87
2018-04-17T03:25:29.333Z,101968.87
2018-04-17T03:28:32.681Z,101970.32
2018-04-17T03:31:36.055Z,101970.55
2018-04-17T03:34:39.398Z,101972.77
2018-04-17T03:37:42.757Z,101974.83
2018-04-17T03:40:46.109Z,101964.95
2018-04-17T03:43:50.292Z,101965.44
2018-04-17T03:46:53.723Z,101967.09
2018-04-17T03:49:57.872Z,101969.57
2018-04-17T03:53:01.251Z,101967.98
2018-04-17T03:56:05.375Z,101971.14
2018-04-17T03:59:09.573Z,101975.27
2018-04-17T04:02:13.692Z,101977.61
2018-04-17T04:05:17.829Z,101980.32
2018-04-17T04:08:21.233Z,101983.44
2018-04-17T04:11:24.605Z,101991.98
2018-04-17T04:14:28.731Z,101987.70
2018-04-17T04:17:50.580Z,101994.70
2018-04-17T04:21:11.832Z,101997.64
2018-04-17T04:24:32.905Z,102014.02
2018-04-17T04:27:36.429Z,102019.55
2018-04-17T04:30:39.779Z,102022.64
2018-04-17T04:33:43.210Z,102023.15
2018-04-17T04:36:46.581Z,102027.47
2018-04-17T04:39:49.950Z,102030.63
2018-04-17T04:42:53.304Z,102029.58
2018-04-17T04:45:57.437Z,102027.63
2018-04-17T04:49:00.817Z,102029.08
2018-04-17T04:52:05.010Z,102033.63
2018-04-17T04:55:08.389Z,102040.96
2018-04-17T04:58:11.981Z,102045.41
2018-04-17T05:01:15.353Z,102045.00
2018-04-17T05:04:18.732Z,102052.30
2018-04-17T05:07:22.862Z,102055.27
2018-04-17T05:10:26.211Z,102061.64
2018-04-17T05:13:29.729Z,102074.41
2018-04-17T05:16:33.104Z,102076.45
2018-04-17T05:19:36.464Z,102083.72
2018-04-17T05:22:39.817Z,102090.20
2018-04-17T05:25:43.210Z,102085.10
2018-04-17T05:28:46.609Z,102093.72
2018-04-17T05:31:49.996Z,102094.26
2018-04-17T05:34:53.412Z,102098.28
2018-04-17T05:37:56.794Z,102096.44
2018-04-17T05:41:00.259Z,102108.63
2018-04-17T05:44:04.560Z,102106.61
2018-04-17T05:47:07.988Z,102105.91
2018-04-17T05:50:11.420Z,102104.37
2018-04-17T05:53:15.512Z,102104.80
2018-04-17T05:56:19.000Z,102100.32
2018-04-17T05:59:22.419Z,102105.30
2018-04-17T06:02:25.906Z,102104.37
2018-04-17T06:05:29.263Z,102106.08
2018-04-17T06:08:32.624Z,102113.10
2018-04-17T06:11:35.986Z,102114.84
2018-04-17T06:14:40.184Z,102121.84
2018-04-17T06:17:43.627Z,102121.42
2018-04-17T06:20:46.994Z,102125.23
2018-04-17T06:23:51.333Z,102131.90
2018-04-17T06:26:55.642Z,102132.88
2018-04-17T06:29:59.776Z,102132.86
2018-04-17T06:33:03.894Z,102132.45
2018-04-17T06:36:07.420Z,102135.86
2018-04-17T06:39:10.833Z,102134.25
2018-04-17T06:42:14.272Z,102139.47
2018-04-17T06:45:17.750Z,102138.39
2018-04-17T06:48:21.100Z,102139.63
2018-04-17T06:51:24.457Z,102135.39
2018-04-17T06:54:27.817Z,102135.69
2018-04-17T06:57:31.181Z,102142.80
2018-04-17T07:00:35.311Z,102147.44
2018-04-17T07:03:38.670Z,102152.11
2018-04-17T07:06:42.106Z,102151.35
2018-04-17T07:09:46.224Z,102153.94
2018-04-17T07:12:50.373Z,102160.48
2018-04-17T07:15:53.745Z,102155.17
2018-04-17T07:18:57.988Z,102167.17
2018-04-17T07:22:01.376Z,102166.05
2018-04-17T07:25:04.730Z,102165.42
2018-04-17T07:28:08.106Z,102174.80
2018-04-17T07:31:11.514Z,102189.75
2018-04-17T07:34:14.953Z,102184.44
2018-04-17T07:37:19.188Z,102185.06
2018-04-17T07:40:23.236Z,102183.83
2018-04-17T07:43:26.616Z,102181.65
2018-04-17T07:46:30.119Z,102185.33
2018-04-17T07:49:33.505Z,102190.33
2018-04-17T07:52:36.893Z,102192.65
2018-04-17T07:55:41.029Z,102198.88
2018-04-17T07:58:44.382Z,102204.52
2018-04-17T08:01:47.752Z,102205.00
2018-04-17T08:04:51.113Z,102211.73
2018-04-17T08:07:54.640Z,102213.13
2018-04-17T08:10:57.999Z,102210.20
2018-04-17T08:14:02.256Z,102212.45
2018-04-17T08:17:05.726Z,102214.22
2018-04-17T08:20:09.868Z,102212.55
2018-04-17T08:23:13.236Z,102219.16
2018-04-17T08:26:17.370Z,102209.36
2018-04-17T08:29:20.728Z,102216.48
2018-04-17T08:32:24.097Z,102212.39
2018-04-17T08:35:27.455Z,102213.54
2018-04-17T08:38:31.594Z,102223.93
2018-04-17T08:41:34.950Z,102228.16
2018-04-17T08:44:38.313Z,102228.09
2018-04-17T08:47:41.672Z,102227.13
2018-04-17T08:50:45.796Z,102232.05
2018-04-17T08:53:49.945Z,102231.39
2018-04-17T08:56:53.424Z,102231.09
2018-04-17T08:59:56.999Z,102231.19
2018-04-17T09:03:00.441Z,102237.86
2018-04-17T09:06:03.826Z,102237.44
2018-04-17T09:09:07.195Z,102241.30
2018-04-17T09:12:10.563Z,102243.08
2018-04-17T09:15:13.955Z,102243.95
2018-04-17T09:18:17.310Z,102246.41
2018-04-17T09:21:21.445Z,102245.97
2018-04-17T09:24:24.997Z,102247.28
2018-04-17T09:27:29.148Z,102247.47
2018-04-17T09:30:33.288Z,102241.65
2018-04-17T09:33:36.692Z,102242.70
2018-04-17T09:36:40.052Z,102251.33
2018-04-17T09:39:43.425Z,102262.16
2018-04-17T09:42:46.790Z,102258.79
2018-04-17T09:45:50.407Z,102269.69
2018-04-17T09:48:53.787Z,102265.65
2018-04-17T09:51:57.191Z,102262.03
2018-04-17T09:55:00.660Z,102275.30
2018-04-17T09:58:04.791Z,102272.25
2018-04-17T10:01:21.630Z,102264.09
2018-04-17T10:04:25.002Z,102268.97
2018-04-17T10:07:29.164Z,102262.30
2018-04-17T10:10:32.581Z,102262.59
2018-04-17T10:13:35.953Z,102268.11
2018-04-17T10:16:39.347Z,102271.77
2018-04-17T10:19:42.722Z,102267.23
2018-04-17T10:22:46.856Z,102263.89
2018-04-17T10:25:50.220Z,102265.50
2018-04-17T10:28:53.589Z,102262.02
2018-04-17T10:31:56.962Z,102262.01
2018-04-17T10:35:00.347Z,102252.42
2018-04-17T10:38:03.704Z,102262.21
2018-04-17T10:41:07.160Z,102263.97
2018-04-17T10:44:10.517Z,102266.83
2018-04-17T10:47:14.861Z,102272.41
2018-04-17T10:50:18.246Z,102269.20
2018-04-17T10:53:22.395Z,102268.91
2018-04-17T10:56:25.833Z,102277.36
2018-04-17T10:59:29.255Z,102274.69
2018-04-17T11:02:32.624Z,102268.62
2018-04-17T11:05:35.974Z,102272.60
2018-04-17T11:08:40.144Z,102266.59
2018-04-17T11:11:43.505Z,102273.56
2018-04-17T11:14:46.941Z,102276.63
2018-04-17T11:17:50.316Z,102278.98
2018-04-17T11:20:53.687Z,102267.13
2018-04-17T11:23:57.845Z,102273.34
2018-04-17T11:27:01.385Z,102273.02
2018-04-17T11:30:05.919Z,102274.95
2018-04-17T11:33:10.212Z,102281.63
2018-04-17T11:36:13.593Z,102291.30
2018-04-17T11:39:16.965Z,102294.98
2018-04-17T11:42:20.330Z,102298.91
2018-04-17T11:45:23.786Z,102297.45
2018-04-17T11:48:27.169Z,102302.20
2018-04-17T11:51:30.529Z,102300.92
2018-04-17T11:54:33.900Z,102303.99
2018-04-17T11:57:37.262Z,102299.97
2018-04-17T12:00:40.660Z,102298.53
2018-04-17T12:03:44.763Z,102303.72
2018-04-17T12:06:48.153Z,102300.62
2018-04-17T12:09:52.285Z,102291.97
2018-04-17T12:12:56.434Z,102297.08
2018-04-17T12:15:59.811Z,102294.22
2018-04-17T12:19:03.312Z,102305.05
2018-04-17T12:22:06.681Z,102311.53
2018-04-17T12:25:10.110Z,102319.00
2018-04-17T12:28:13.489Z,102325.45
2018-04-17T12:31:16.861Z,102326.28
2018-04-17T12:34:20.233Z,102332.97
2018-04-17T12:37:23.600Z,102328.44
2018-04-17T12:40:27.751Z,102329.80
2018-04-17T12:43:31.111Z,102324.58
2018-04-17T12:46:35.431Z,102319.96
2018-04-17T12:49:39.579Z,102311.57
2018-04-17T12:52:43.053Z,102311.84
2018-04-17T12:55:47.324Z,102313.62
2018-04-17T12:58:50.715Z,102325.83
2018-04-17T13:01:54.090Z,102321.11
2018-04-17T13:04:57.558Z,102320.72
2018-04-17T13:08:00.920Z,102320.48
2018-04-17T13:11:04.276Z,102323.69
2018-04-17T13:14:08.391Z,102326.64
2018-04-17T13:17:12.537Z,102326.64
2018-04-17T13:20:15.872Z,102329.78
2018-04-17T13:23:19.256Z,102327.51
2018-04-17T13:26:22.601Z,102327.08
2018-04-17T13:29:26.727Z,102339.59
2018-04-17T13:32:30.869Z,102339.52
2018-04-17T13:35:34.236Z,102336.78
2018-04-17T13:38:38.373Z,102348.26
2018-04-17T13:41:41.755Z,102345.27
2018-04-17T13:44:45.886Z,102342.89
2018-04-17T13:47:49.308Z,102351.36
2018-04-17T13:50:52.660Z,102354.50
2018-04-17T13:53:56.021Z,102347.78
2018-04-17T13:56:59.563Z,102349.59
2018-04-17T14:00:02.952Z,102347.67
2018-04-17T14:03:06.316Z,102341.17
2018-04-17T14:06:09.695Z,102345.15
2018-04-17T14:09:13.069Z,102344.61
2018-04-17T14:12:17.200Z,102341.27
2018-04-17T14:15:20.593Z,102349.82
2018-04-17T14:18:24.887Z,102357.02
2018-04-17T14:21:28.308Z,102363.00
2018-04-17T14:24:32.437Z,102364.06
2018-04-17T14:27:35.806Z,102358.33
2018-04-17T14:30:39.246Z,102366.34
2018-04-17T14:33:42.700Z,102362.57
2018-04-17T14:36:46.140Z,102357.45
2018-04-17T14:39:49.515Z,102357.96
2018-04-17T14:42:52.883Z,102365.27
2018-04-17T14:45:56.280Z,102368.09
2018-04-17T14:48:59.666Z,102367.74
2018-04-17T14:52:03.041Z,102365.41
2018-04-17T14:55:06.399Z,102368.47
2018-04-17T14:58:09.778Z,102367.97
2018-04-17T15:01:13.165Z,102361.52
2018-04-17T15:04:16.575Z,102367.57
2018-04-17T15:07:19.938Z,102368.34
2018-04-17T15:10:23.317Z,102371.88
2018-04-17T15:13:27.445Z,102376.41
2018-04-17T15:16:31.581Z,102384.69
2018-04-17T15:19:34.948Z,102383.63
2018-04-17T15:22:39.109Z,102379.20
2018-04-17T15:25:42.490Z,102380.18
2018-04-17T15:28:45.864Z,102375.06
2018-04-17T15:31:50.021Z,102380.28
2018-04-17T15:34:53.532Z,102389.89
2018-04-17T15:37:56.918Z,102391.11
2018-04-17T15:41:00.310Z,102388.38
2018-04-17T15:44:03.782Z,102382.06
2018-04-17T15:47:07.946Z,102378.97
2018-04-17T15:50:11.322Z,102382.66
2018-04-17T15:53:14.693Z,102384.47
2018-04-17T15:56:18.106Z,102384.06
2018-04-17T15:59:22.366Z,102383.13
2018-04-17T16:02:25.957Z,102382.66
2018-04-17T16:05:29.325Z,102391.78
2018-04-17T16:08:32.714Z,102393.16
2018-04-17T16:11:36.125Z,102392.20
2018-04-17T16:14:40.434Z,102388.86
2018-04-17T16:17:44.211Z,102387.16
2018-04-17T16:20:47.700Z,102391.46
2018-04-17T16:23:51.103Z,102392.39
2018-04-17T16:26:54.460Z,102398.75
2018-04-17T16:29:58.699Z,102388.31
2018-04-17T16:33:02.155Z,102391.00
2018-04-17T16:36:05.610Z,102384.30
2018-04-17T16:39:09.014Z,102383.28
2018-04-17T16:42:12.415Z,102379.33
2018-04-17T16:45:15.792Z,102371.94
2018-04-17T16:48:19.919Z,102369.63
2018-04-17T16:51:23.399Z,102374.83
2018-04-17T16:54:27.558Z,102370.84
2018-04-17T16:57:30.954Z,102373.47
2018-04-17T17:00:34.354Z,102383.30
2018-04-17T17:03:37.836Z,102376.91
2018-04-17T17:06:42.005Z,102379.03
2018-04-17T17:09:45.425Z,102376.22
2018-04-17T17:12:48.889Z,102382.72
2018-04-17T17:15:52.286Z,102394.52
2018-04-17T17:18:55.696Z,102404.42
2018-04-17T17:21:59.124Z,102387.27
2018-04-17T17:25:03.285Z,102383.81
2018-04-17T17:28:06.654Z,102388.69
2018-04-17T17:31:10.803Z,102396.55
2018-04-17T17:34:14.182Z,102396.05
2018-04-17T17:37:18.335Z,102393.39
2018-04-17T17:40:21.718Z,102395.18
2018-04-17T17:43:25.237Z,102400.38
2018-04-17T17:46:28.671Z,102398.84
2018-04-17T17:49:32.062Z,102397.62
2018-04-17T17:52:35.436Z,102396.13
2018-04-17T17:55:38.818Z,102407.83
2018-04-17T17:58:42.200Z,102407.52
2018-04-17T18:01:46.331Z,102415.23
2018-04-17T18:04:49.746Z,102420.27
2018-04-17T18:07:53.110Z,102422.67
2018-04-17T18:10:57.328Z,102426.77
2018-04-17T18:14:01.555Z,102433.45
2018-04-17T18:17:05.738Z,102441.97
2018-04-17T18:20:09.072Z,102436.52
2018-04-17T18:23:13.327Z,102423.14
2018-04-17T18:26:16.749Z,102427.65
2018-04-17T18:29:20.154Z,102432.75
2018-04-17T18:32:23.714Z,102427.07
2018-04-17T18:35:27.145Z,102432.41
2018-04-17T18:38:30.529Z,102425.08
2018-04-17T18:41:33.968Z,102434.28
2018-04-17T18:44:37.432Z,102440.54
2018-04-17T18:47:40.812Z,102439.80
2018-04-17T18:50:44.197Z,102443.37
2018-04-17T18:53:48.333Z,102441.72
2018-04-17T18:56:51.710Z,102438.30
2018-04-17T18:59:56.040Z,102436.19
2018-04-17T19:03:00.170Z,102433.83
2018-04-17T19:06:03.736Z,102443.20
2018-04-17T19:09:07.113Z,102438.25
2018-04-17T19:12:10.550Z,102434.16
2018-04-17T19:15:14.739Z,102448.02
2018-04-17T19:18:18.122Z,102446.61
2018-04-17T19:21:21.514Z,102444.30
2018-04-17T19:24:24.911Z,102449.86
2018-04-17T19:27:28.295Z,102454.98
2018-04-17T19:30:31.692Z,102454.05
2018-04-17T19:33:35.076Z,102453.83
2018-04-17T19:36:39.218Z,102461.10
2018-04-17T19:39:42.638Z,102470.26
2018-04-17T19:42:46.002Z,102459.27
2018-04-17T19:45:49.376Z,102466.09
2018-04-17T19:48:52.767Z,102466.77
2018-04-17T19:51:56.134Z,102467.86
2018-04-17T19:54:59.513Z,102461.67
2018-04-17T19:58:02.915Z,102467.56
2018-04-17T20:01:06.285Z,102467.12
2018-04-17T20:04:10.444Z,102470.34
2018-04-17T20:07:13.846Z,102467.11
2018-04-17T20:10:17.225Z,102471.70
2018-04-17T20:13:20.615Z,102469.68
2018-04-17T20:16:23.990Z,102470.27
2018-04-17T20:19:27.397Z,102480.02
2018-04-17T20:22:31.541Z,102478.50
2018-04-17T20:25:34.925Z,102475.51
2018-04-17T20:28:39.071Z,102471.68
2018-04-17T20:31:42.505Z,102469.78
2018-04-17T20:34:45.866Z,102463.47
2018-04-17T20:37:49.245Z,102458.09
2018-04-17T20:40:53.485Z,102464.59
2018-04-17T20:43:56.883Z,102463.63
2018-04-17T20:47:00.248Z,102475.33
2018-04-17T20:50:04.385Z,102485.31
2018-04-17T20:53:07.796Z,102479.82
2018-04-17T20:56:11.207Z,102484.76
2018-04-17T20:59:14.566Z,102483.17
2018-04-17T21:02:18.710Z,102484.27
2018-04-17T21:05:22.082Z,102485.36
2018-04-17T21:08:26.207Z,102482.98
2018-04-17T21:11:30.351Z,102478.89
2018-04-17T21:14:33.724Z,102478.68
2018-04-17T21:17:37.930Z,102488.17
2018-04-17T21:20:41.315Z,102478.02
2018-04-17T21:23:44.691Z,102483.98
2018-04-17T21:26:48.068Z,102487.42
2018-04-17T21:29:51.465Z,102483.67
2018-04-17T21:32:54.851Z,102485.59
2018-04-17T21:35:59.041Z,102485.92
2018-04-17T21:39:02.408Z,102481.84
2018-04-17T21:42:05.879Z,102489.01
2018-04-17T21:45:09.310Z,102487.16
2018-04-17T21:48:12.694Z,102488.84
2018-04-17T21:51:16.069Z,102486.18
2018-04-17T21:54:19.529Z,102494.41
2018-04-17T21:57:22.867Z,102492.69
2018-04-17T22:00:26.275Z,102493.87
2018-04-17T22:03:29.639Z,102496.45
2018-04-17T22:06:33.021Z,102495.52
2018-04-17T22:09:36.405Z,102495.67
2018-04-17T22:12:39.818Z,102491.77
2018-04-17T22:15:43.199Z,102491.81
2018-04-17T22:18:46.562Z,102501.23
2018-04-17T22:21:50.804Z,102499.08
2018-04-17T22:24:54.212Z,102503.38
2018-04-17T22:27:57.583Z,102512.31
2018-04-17T22:31:01.706Z,102510.48
2018-04-17T22:34:05.090Z,102511.74
2018-04-17T22:37:09.253Z,102510.48
2018-04-17T22:40:12.617Z,102504.84
2018-04-17T22:43:16.760Z,102511.25
2018-04-17T22:46:20.175Z,102513.67
2018-04-17T22:49:23.590Z,102515.30
2018-04-17T22:52:27.041Z,102515.66
2018-04-17T22:55:30.412Z,102515.23
2018-04-17T22:58:33.896Z,102509.83
2018-04-17T23:01:37.256Z,102517.36
2018-04-17T23:04:40.633Z,102513.79
2018-04-17T23:07:44.764Z,102524.83
2018-04-17T23:10:48.121Z,102528.64
2018-04-17T23:13:51.494Z,102528.25
2018-04-17T23:16:54.849Z,102528.73
2018-04-17T23:19:58.984Z,102532.23
2018-04-17T23:23:02.345Z,102531.67
2018-04-17T23:26:06.478Z,102532.00
2018-04-17T23:29:10.622Z,102528.75
2018-04-17T23:32:14.026Z,102528.49
2018-04-17T23:35:17.385Z,102531.63
2018-04-17T23:38:21.801Z,102536.18
2018-04-17T23:41:25.236Z,102537.34
2018-04-17T23:44:28.677Z,102533.05
2018-04-17T23:47:32.056Z,102535.97
2018-04-17T23:50:35.486Z,102539.20
2018-04-17T23:53:39.748Z,102543.98
2018-04-17T23:56:44.054Z,102539.22
2018-04-17T23:59:48.207Z,102540.98
